Time;durP1;ratioP1;P1;durP2;ratioP2;P2;SDS_P1;SDS_P2;PMS_P1;PMS_P2;Temp;Humidity;BMP_temperature;BMP_pressure;BME280_temperature;BME280_humidity;BME280_pressure;Samples;Min_cycle;Max_cycle;Signal;HPM_P1;HPM_P2
2022/05/23 00:03:30;;;;;;;6.32;3.47;;;;;;;15.00;57.07;99200.28;10434686;28;20513;-78
2022/05/23 00:08:32;;;;;;;8.65;3.80;;;;;;;14.91;57.53;99190.56;10438034;28;20060;-78
2022/05/23 00:13:34;;;;;;;7.53;3.50;;;;;;;14.96;57.26;99204.97;10438116;28;20476;-78
2022/05/23 00:18:36;;;;;;;6.95;3.22;;;;;;;15.01;58.00;99188.78;10437155;28;20083;-78
2022/05/23 00:23:38;;;;;;;7.20;3.65;;;;;;;14.90;58.04;99188.91;10438375;28;20064;-78
2022/05/23 00:28:40;;;;;;;6.47;3.47;;;;;;;14.83;58.94;99183.34;10437924;28;20468;-78
2022/05/23 00:39:02;;;;;;;6.20;3.20;;;;;;;14.74;58.94;99165.72;10438612;28;20474;-79
2022/05/23 00:44:05;;;;;;;6.15;3.40;;;;;;;14.87;58.67;99154.94;10435414;28;20041;-78
2022/05/23 00:49:08;;;;;;;6.88;3.50;;;;;;;14.89;58.72;99151.22;10435259;28;20141;-77
2022/05/23 00:54:10;;;;;;;9.13;3.63;;;;;;;14.89;58.15;99138.06;10452086;28;20142;-79
2022/05/23 00:59:17;;;;;;;6.82;3.70;;;;;;;14.63;59.07;99141.34;10436031;28;20053;-78
2022/05/23 01:04:19;;;;;;;7.18;3.88;;;;;;;14.41;58.84;99126.59;10437295;28;20084;-78
2022/05/23 01:09:25;;;;;;;6.07;3.63;;;;;;;14.20;59.27;99120.59;10435688;28;20053;-78
2022/05/23 01:14:46;;;;;;;5.60;3.65;;;;;;;14.21;59.74;99120.44;10433704;28;20049;-79
2022/05/23 01:19:48;;;;;;;9.25;3.83;;;;;;;14.25;59.47;99119.22;10434834;28;20084;-78
2022/05/23 01:25:08;;;;;;;7.43;4.28;;;;;;;14.12;60.10;99115.16;10436201;28;20126;-78
2022/05/23 01:30:10;;;;;;;7.72;3.85;;;;;;;13.70;60.40;99117.88;10432286;28;20080;-78
2022/05/23 01:35:12;;;;;;;6.90;3.88;;;;;;;13.78;60.37;99111.97;10431568;28;20510;-78
2022/05/23 01:40:17;;;;;;;6.68;4.25;;;;;;;13.83;60.85;99094.03;10434975;28;20061;-78
2022/05/23 01:45:27;;;;;;;9.32;4.40;;;;;;;14.06;60.75;99098.13;10436861;28;20126;-78
2022/05/23 01:50:30;;;;;;;10.23;4.35;;;;;;;14.02;60.54;99077.50;10449981;28;20563;-78
2022/05/23 01:55:32;;;;;;;7.78;4.50;;;;;;;13.89;60.60;99067.22;10436320;28;20049;-79
2022/05/23 02:01:14;;;;;;;7.20;4.25;;;;;;;13.74;61.47;99076.41;10430320;28;20099;-78
2022/05/23 02:06:16;;;;;;;7.57;3.42;;;;;;;13.94;60.58;99048.41;10440067;28;20060;-78
2022/05/23 02:11:18;;;;;;;8.55;4.10;;;;;;;13.88;60.68;99055.00;10438402;28;20092;-78
2022/05/23 02:16:24;;;;;;;7.03;3.78;;;;;;;13.92;60.54;99066.97;10438948;28;20665;-78
2022/05/23 02:21:26;;;;;;;5.88;3.92;;;;;;;13.87;60.68;99069.13;10439719;28;20063;-78
2022/05/23 02:26:27;;;;;;;8.07;4.20;;;;;;;13.71;61.40;99067.00;10437427;28;20060;-78
2022/05/23 02:31:30;;;;;;;7.03;3.40;;;;;;;13.87;61.41;99061.25;10437455;28;20103;-78
2022/05/23 02:36:32;;;;;;;8.55;4.13;;;;;;;13.93;61.06;99063.34;10436943;28;20052;-78
2022/05/23 02:41:35;;;;;;;8.10;3.88;;;;;;;14.01;61.19;99060.03;10440263;28;20884;-79
2022/05/23 02:46:36;;;;;;;7.35;4.07;;;;;;;14.05;60.68;99051.75;10441515;28;20457;-79
2022/05/23 02:51:39;;;;;;;9.27;4.45;;;;;;;13.91;60.84;99036.38;10438249;28;20061;-79
2022/05/23 02:56:40;;;;;;;7.40;4.63;;;;;;;13.66;61.42;99028.94;10439725;28;20049;-79
2022/05/23 03:07:03;;;;;;;8.68;4.10;;;;;;;13.99;60.86;99004.13;10436090;28;20114;-79
2022/05/23 03:12:05;;;;;;;8.93;4.00;;;;;;;14.23;60.05;99009.84;10431904;28;20045;-79
2022/05/23 03:17:07;;;;;;;6.13;3.65;;;;;;;14.26;59.86;99007.78;10425778;28;21005;-79
2022/05/23 03:27:31;;;;;;;6.28;3.80;;;;;;;14.43;59.67;99003.66;10435480;28;20133;-81
2022/05/23 03:32:34;;;;;;;8.93;4.30;;;;;;;14.27;59.86;98990.19;10436059;28;20134;-81
2022/05/23 03:37:36;;;;;;;6.38;3.78;;;;;;;14.14;59.93;98998.38;10434893;28;20052;-80
2022/05/23 03:42:38;;;;;;;8.70;3.90;;;;;;;14.29;60.07;99006.66;10433739;28;21051;-80
2022/05/23 03:47:40;;;;;;;6.97;3.50;;;;;;;14.38;60.04;99019.84;10432068;28;20063;-80
2022/05/23 03:52:41;;;;;;;8.48;3.83;;;;;;;14.42;59.69;99018.59;10433195;28;20045;-80
2022/05/23 03:57:43;;;;;;;8.57;3.90;;;;;;;14.28;60.29;99013.75;10435021;28;20670;-80
2022/05/23 04:02:45;;;;;;;7.18;4.00;;;;;;;14.20;60.45;99008.34;10433275;28;20118;-81
2022/05/23 04:07:47;;;;;;;8.35;3.75;;;;;;;14.11;60.28;98993.38;10435887;28;20544;-81
2022/05/23 04:12:49;;;;;;;12.07;3.55;;;;;;;14.25;60.09;99008.75;10433658;28;20053;-81
2022/05/23 04:17:50;;;;;;;6.88;3.58;;;;;;;14.45;60.01;99001.72;10433013;28;20061;-81
2022/05/23 04:22:52;;;;;;;8.10;3.60;;;;;;;14.63;59.42;98999.25;10434472;28;20080;-81
2022/05/23 04:27:54;;;;;;;9.35;3.97;;;;;;;14.70;59.26;98987.16;10434699;28;20526;-81
2022/05/23 04:38:18;;;;;;;11.13;4.18;;;;;;;14.54;59.70;98977.22;10435862;28;20053;-81
2022/05/23 04:43:20;;;;;;;7.38;3.58;;;;;;;14.47;59.85;98963.75;10433417;28;20383;-80
2022/05/23 04:53:42;;;;;;;6.97;3.80;;;;;;;14.86;59.50;98976.94;10442827;28;20509;-81
2022/05/23 04:58:44;;;;;;;5.90;3.75;;;;;;;15.07;59.21;98973.13;10442687;28;20071;-80
2022/05/23 05:03:46;;;;;;;8.02;4.00;;;;;;;14.90;59.52;98944.06;10438650;28;20053;-80
2022/05/23 05:08:48;;;;;;;7.72;3.70;;;;;;;15.00;59.18;98931.72;10440796;28;20095;-80
2022/05/23 05:13:50;;;;;;;10.93;4.30;;;;;;;15.05;59.31;98905.75;10440164;28;20847;-80
2022/05/23 05:18:52;;;;;;;6.55;3.58;;;;;;;15.36;58.86;98883.44;10441382;28;20071;-80
2022/05/23 05:23:54;;;;;;;8.18;3.83;;;;;;;15.57;58.15;98873.47;10440005;28;20053;-80
2022/05/23 05:28:55;;;;;;;8.95;3.90;;;;;;;15.88;57.33;98858.97;10438757;28;20092;-81
2022/05/23 05:34:21;;;;;;;8.82;3.80;;;;;;;16.08;56.80;98841.22;10439507;28;20045;-81
2022/05/23 05:39:26;;;;;;;7.30;3.78;;;;;;;16.19;56.14;98830.41;10437672;28;20064;-81
2022/05/23 05:44:32;;;;;;;8.85;4.22;;;;;;;16.55;56.32;98818.78;10438122;28;20053;-81
2022/05/23 05:49:36;;;;;;;8.70;4.38;;;;;;;16.91;54.34;98790.44;10439716;28;20414;-80
2022/05/23 05:55:02;;;;;;;8.40;4.07;;;;;;;16.56;55.10;98761.56;10439281;28;20083;-81
2022/05/23 06:00:06;;;;;;;9.90;3.92;;;;;;;16.54;54.58;98742.41;10438119;28;20065;-81
2022/05/23 06:05:08;;;;;;;5.63;3.80;;;;;;;16.33;54.53;98720.81;10438159;28;20083;-81
2022/05/23 06:15:38;;;;;;;9.30;3.90;;;;;;;15.87;53.52;98699.16;10436509;28;20052;-81
2022/05/23 06:20:40;;;;;;;9.30;4.50;;;;;;;16.05;53.48;98676.19;10435082;28;20088;-81
2022/05/23 06:25:42;;;;;;;10.23;4.00;;;;;;;16.21;53.55;98744.84;10453184;28;20098;-81
2022/05/23 06:30:45;;;;;;;6.40;3.53;;;;;;;16.49;53.03;98758.72;10438748;28;20106;-81
2022/05/23 06:35:47;;;;;;;8.50;3.90;;;;;;;16.79;53.10;98789.88;10433796;28;20049;-80
2022/05/23 06:40:50;;;;;;;7.35;3.90;;;;;;;16.90;53.33;98810.72;10436439;28;20110;-80
2022/05/23 06:45:52;;;;;;;9.85;4.03;;;;;;;17.12;53.90;98819.88;10436319;28;20048;-81
2022/05/23 06:50:54;;;;;;;10.27;4.43;;;;;;;17.50;53.76;98824.69;10435039;28;20057;-81
2022/05/23 06:55:57;;;;;;;11.07;4.35;;;;;;;17.72;53.19;98808.19;10435769;28;20053;-81
2022/05/23 07:00:58;;;;;;;7.25;3.92;;;;;;;17.60;53.42;98806.84;10436033;28;20072;-81
2022/05/23 07:16:59;;;;;;;9.38;4.57;;;;;;;17.43;53.31;98807.81;10430491;28;20067;-81
2022/05/23 07:22:06;;;;;;;8.20;3.95;;;;;;;17.57;52.11;98811.63;10432587;28;20134;-81
2022/05/23 07:27:12;;;;;;;9.02;3.92;;;;;;;17.56;51.38;98808.16;10431868;28;20045;-82
2022/05/23 07:32:18;;;;;;;7.77;3.70;;;;;;;17.80;50.82;98810.00;10432924;28;20134;-82
2022/05/23 07:37:22;;;;;;;8.25;3.55;;;;;;;17.84;50.17;98812.16;10428872;28;20164;-81
2022/05/23 07:42:26;;;;;;;6.85;3.55;;;;;;;17.83;49.55;98810.50;10429772;28;20633;-81
2022/05/23 07:47:29;;;;;;;9.10;3.60;;;;;;;17.95;49.40;98816.31;10433898;28;21038;-82
2022/05/23 07:52:35;;;;;;;7.63;3.53;;;;;;;18.07;49.08;98806.22;10433717;28;20052;-82
2022/05/23 08:03:04;;;;;;;10.25;4.05;;;;;;;17.84;49.09;98806.03;10432014;28;20045;-79
2022/05/23 08:08:06;;;;;;;9.23;3.90;;;;;;;18.13;48.65;98794.97;10431367;28;20056;-81
2022/05/23 08:13:11;;;;;;;8.05;3.55;;;;;;;18.38;48.78;98804.56;10431101;28;20486;-81
2022/05/23 08:18:16;;;;;;;9.43;4.20;;;;;;;18.54;48.37;98789.44;10431214;28;20438;-80
2022/05/23 08:23:24;;;;;;;7.55;3.42;;;;;;;19.67;46.31;98764.22;10435884;28;20044;-80
2022/05/23 08:28:31;;;;;;;10.48;3.92;;;;;;;20.56;45.17;98749.16;10439172;28;20059;-80
2022/05/23 08:33:36;;;;;;;7.63;3.40;;;;;;;21.93;42.08;98736.63;10439381;28;20182;-79
2022/05/23 08:38:39;;;;;;;8.68;3.60;;;;;;;22.69;40.28;98730.38;10436808;28;20060;-80
2022/05/23 08:44:10;;;;;;;7.93;3.95;;;;;;;22.73;38.76;98730.81;10442195;28;20056;-83
2022/05/23 08:49:30;;;;;;;7.70;3.60;;;;;;;22.77;40.21;98734.75;10439599;28;20057;-81
2022/05/23 08:54:57;;;;;;;8.35;3.85;;;;;;;23.17;39.51;98723.22;10437481;28;20053;-81
2022/05/23 09:00:23;;;;;;;7.72;3.50;;;;;;;23.34;37.00;98716.50;10435444;28;20083;-82
2022/05/23 09:05:39;;;;;;;6.40;3.40;;;;;;;24.23;37.70;98707.13;10440244;28;20057;-81
2022/05/23 09:11:11;;;;;;;9.95;3.70;;;;;;;24.82;36.62;98699.78;10434243;28;20461;-80
2022/05/23 09:16:27;;;;;;;5.72;3.25;;;;;;;25.16;36.27;98687.91;10436461;28;20049;-81
2022/05/23 09:26:55;;;;;;;6.43;3.15;;;;;;;25.70;35.25;98690.03;10432945;28;20045;-80
2022/05/23 09:32:08;;;;;;;6.95;3.30;;;;;;;25.64;35.28;98678.34;10435426;28;20117;-81
2022/05/23 09:37:46;;;;;;;8.35;3.53;;;;;;;24.99;35.13;98678.72;10435038;28;20053;-82
2022/05/23 09:48:29;;;;;;;8.38;3.15;;;;;;;24.91;37.46;98660.25;10438047;28;20060;-81
2022/05/23 09:53:52;;;;;;;8.10;3.22;;;;;;;24.67;38.88;98652.94;10439550;28;20087;-82
2022/05/23 09:58:59;;;;;;;8.65;3.25;;;;;;;24.67;38.88;98643.06;10436489;28;20057;-79
2022/05/23 10:04:02;;;;;;;8.40;2.88;;;;;;;25.26;38.37;98626.72;10435052;28;20045;-78
2022/05/23 10:09:34;;;;;;;9.38;3.20;;;;;;;25.02;38.13;98619.44;10437495;28;20065;-82
2022/05/23 10:14:43;;;;;;;11.45;3.00;;;;;;;25.23;38.35;98603.03;10431015;28;20049;-80
2022/05/23 10:19:45;;;;;;;8.40;2.63;;;;;;;25.25;38.71;98598.28;10435422;28;20140;-79
2022/05/23 10:25:00;;;;;;;7.07;2.58;;;;;;;25.67;37.01;98584.16;10439276;28;20098;-81
2022/05/23 10:30:07;;;;;;;4.97;2.30;;;;;;;25.55;37.37;98583.25;10436204;28;20533;-79
2022/05/23 10:35:23;;;;;;;7.10;2.55;;;;;;;25.25;39.52;98554.66;10434187;28;20053;-80
2022/05/23 10:46:14;;;;;;;9.68;2.42;;;;;;;25.19;39.06;98523.41;10432361;28;20091;-81
2022/05/23 10:51:35;;;;;;;3.97;1.98;;;;;;;25.18;38.40;98511.09;10435708;28;20053;-80
2022/05/23 10:57:08;;;;;;;5.60;2.53;;;;;;;25.08;38.05;98500.88;10435973;28;20053;-81
2022/05/23 11:02:44;;;;;;;6.00;2.30;;;;;;;25.35;38.42;98496.94;10436489;28;20570;-81
2022/05/23 11:08:25;;;;;;;6.35;2.30;;;;;;;25.55;39.33;98486.84;10430119;28;20088;-79
2022/05/23 11:13:54;;;;;;;7.15;2.15;;;;;;;25.51;38.31;98493.69;10431132;28;20110;-79
2022/05/23 11:19:28;;;;;;;5.10;2.20;;;;;;;25.96;38.42;98482.75;10431859;28;20102;-80
2022/05/23 11:25:02;;;;;;;4.63;2.20;;;;;;;26.32;37.93;98469.28;10429995;28;20085;-79
2022/05/23 11:35:47;;;;;;;6.55;2.40;;;;;;;26.23;38.63;98449.19;10402303;28;20130;-80
2022/05/23 11:40:52;;;;;;;9.23;2.72;;;;;;;26.49;38.75;98427.34;10429621;28;20191;-80
2022/05/23 11:46:00;;;;;;;9.88;2.85;;;;;;;26.18;38.82;98422.25;10425869;28;20135;-80
2022/05/23 11:51:24;;;;;;;6.43;2.22;;;;;;;25.77;39.32;98447.88;10430241;28;20045;-81
2022/05/23 11:56:44;;;;;;;6.53;2.30;;;;;;;26.36;38.77;98435.59;10429910;28;20088;-80
2022/05/23 12:02:08;;;;;;;4.32;2.20;;;;;;;26.70;39.19;98432.22;10430009;28;20083;-80
2022/05/23 12:07:42;;;;;;;8.85;2.35;;;;;;;26.81;37.93;98425.25;10446601;28;20049;-81
2022/05/23 12:13:16;;;;;;;5.68;2.20;;;;;;;26.73;38.08;98431.75;10409009;28;20068;-80
2022/05/23 12:18:32;;;;;;;6.47;2.50;;;;;;;26.40;39.04;98426.88;10421180;28;20418;-80
2022/05/23 12:23:34;;;;;;;7.72;2.45;;;;;;;25.91;39.35;98432.47;10427922;28;20149;-80
2022/05/23 12:28:46;;;;;;;6.68;2.70;;;;;;;25.65;39.20;98438.97;10431053;28;20068;-80
2022/05/23 12:34:07;;;;;;;8.60;2.20;;;;;;;25.19;40.45;98435.13;10447095;28;20094;-80
2022/05/23 12:39:25;;;;;;;6.72;2.80;;;;;;;24.91;41.19;98430.25;10448553;28;20053;-79
2022/05/23 12:44:39;;;;;;;4.80;2.58;;;;;;;24.84;42.17;98414.25;10431266;28;20053;-79
2022/05/23 12:50:15;;;;;;;7.03;3.00;;;;;;;25.22;41.27;98406.06;10426544;28;20107;-80
2022/05/23 12:55:56;;;;;;;6.47;2.78;;;;;;;25.07;41.15;98397.56;10423784;28;20130;-79
2022/05/23 13:01:16;;;;;;;7.13;3.45;;;;;;;25.23;41.12;98385.47;10427117;28;20536;-78
2022/05/23 13:06:58;;;;;;;6.05;3.22;;;;;;;24.80;42.29;98388.97;10423995;28;20445;-78
2022/05/23 13:12:09;;;;;;;7.45;3.60;;;;;;;24.82;42.77;98383.41;10431093;28;20060;-79
2022/05/23 13:17:11;;;;;;;5.20;3.10;;;;;;;24.62;43.62;98378.22;10434189;28;20068;-78
2022/05/23 13:22:21;;;;;;;6.18;3.10;;;;;;;24.71;43.35;98373.41;10431088;28;20540;-79
2022/05/23 13:27:26;;;;;;;8.73;3.33;;;;;;;24.60;43.36;98364.25;10433073;28;20136;-78
2022/05/23 13:32:29;;;;;;;7.13;2.90;;;;;;;24.73;43.88;98341.97;10432596;28;20134;-79
2022/05/23 13:37:37;;;;;;;7.53;2.92;;;;;;;24.83;43.66;98345.78;10428977;28;20529;-79
2022/05/23 13:42:42;;;;;;;6.90;3.28;;;;;;;25.21;43.11;98331.34;10433932;28;20488;-79
2022/05/23 13:47:54;;;;;;;8.95;3.00;;;;;;;25.47;42.85;98313.16;10427854;28;20421;-79
2022/05/23 13:53:21;;;;;;;6.18;3.05;;;;;;;25.46;43.33;98298.16;10432246;28;20892;-78
2022/05/23 13:58:25;;;;;;;7.93;3.10;;;;;;;25.42;43.16;98294.28;10430569;28;20061;-79
2022/05/23 14:03:28;;;;;;;5.60;2.95;;;;;;;25.44;43.59;98276.16;10434393;28;20084;-80
2022/05/23 14:08:36;;;;;;;8.23;3.30;;;;;;;25.43;43.92;98269.16;10431232;28;20056;-81
2022/05/23 14:13:38;;;;;;;5.85;3.08;;;;;;;25.71;43.87;98250.63;10436497;28;20087;-81
2022/05/23 14:18:41;;;;;;;8.30;3.50;;;;;;;25.64;44.51;98244.56;10434308;28;20061;-81
2022/05/23 14:23:53;;;;;;;7.60;3.33;;;;;;;25.97;44.00;98240.59;10435069;28;20535;-80
2022/05/23 14:28:56;;;;;;;8.77;3.58;;;;;;;26.28;43.14;98240.28;10435075;28;20056;-81
2022/05/23 14:34:05;;;;;;;8.43;3.53;;;;;;;26.52;43.19;98225.81;10435946;28;20041;-81
2022/05/23 14:39:22;;;;;;;12.95;3.40;;;;;;;26.49;43.22;98221.72;10435880;28;20510;-81
2022/05/23 14:44:30;;;;;;;7.72;3.20;;;;;;;26.69;41.76;98210.66;10436067;28;20081;-81
2022/05/23 14:49:38;;;;;;;6.57;3.00;;;;;;;27.10;41.92;98210.44;10452087;28;20052;-80
2022/05/23 15:05:40;;;;;;;9.02;3.22;;;;;;;26.47;42.55;98170.22;10435327;28;20036;-81
2022/05/23 15:10:43;;;;;;;7.05;3.22;;;;;;;26.57;42.47;98169.63;10434141;28;20144;-81
2022/05/23 15:15:47;;;;;;;7.10;3.25;;;;;;;26.48;42.87;98165.66;10431387;28;20138;-81
2022/05/23 15:20:53;;;;;;;7.90;3.38;;;;;;;26.55;42.88;98159.16;10431033;28;20107;-80
2022/05/23 15:25:59;;;;;;;6.00;2.70;;;;;;;26.11;42.09;98153.56;10427481;28;20534;-81
2022/05/23 15:31:01;;;;;;;9.25;2.97;;;;;;;26.11;41.70;98148.22;10428620;28;20115;-81
2022/05/23 15:36:03;;;;;;;9.80;3.30;;;;;;;26.14;41.32;98153.13;10433094;28;20045;-81
2022/05/23 15:41:08;;;;;;;7.45;2.90;;;;;;;26.19;41.30;98132.59;10427632;28;20978;-81
2022/05/23 15:46:22;;;;;;;8.52;2.90;;;;;;;26.31;40.45;98124.53;10429652;28;20131;-81
2022/05/23 15:51:27;;;;;;;8.75;2.85;;;;;;;26.15;41.18;98125.28;10431672;28;20569;-80
2022/05/23 15:56:29;;;;;;;7.75;3.38;;;;;;;25.72;41.82;98115.69;10432305;28;20139;-80
2022/05/23 16:02:15;;;;;;;8.63;3.00;;;;;;;25.38;42.09;98107.63;10429192;28;20106;-80
2022/05/23 16:07:16;;;;;;;8.25;3.20;;;;;;;25.11;43.37;98099.16;10418877;28;20175;-80
2022/05/23 16:12:19;;;;;;;7.07;3.15;;;;;;;24.94;46.07;98103.50;10426017;28;20134;-81
2022/05/23 16:17:21;;;;;;;7.93;3.20;;;;;;;24.78;48.23;98093.44;10443278;28;20107;-79
2022/05/23 16:22:26;;;;;;;8.88;3.40;;;;;;;24.42;48.13;98083.59;10428652;28;20115;-80
2022/05/23 16:27:28;;;;;;;8.20;3.58;;;;;;;24.27;47.61;98092.00;10426133;28;20084;-80
2022/05/23 16:37:51;;;;;;;9.23;3.30;;;;;;;24.48;46.51;98063.19;10426938;28;20122;-80
2022/05/23 16:42:54;;;;;;;7.15;3.15;;;;;;;24.52;45.78;98061.69;10422972;28;20533;-80
2022/05/23 16:47:58;;;;;;;8.65;3.45;;;;;;;24.45;44.96;98060.97;10434046;28;20045;-81
2022/05/23 16:53:00;;;;;;;8.38;3.20;;;;;;;24.41;44.65;98067.81;10432370;28;20541;-81
2022/05/23 16:58:03;;;;;;;31.35;5.75;;;;;;;23.68;50.88;98138.97;10433325;28;20600;-81
2022/05/23 17:03:07;;;;;;;10.35;3.55;;;;;;;21.78;56.09;98139.75;10432776;28;20146;-82
2022/05/23 17:08:10;;;;;;;11.55;3.67;;;;;;;21.34;55.59;98187.38;10435290;28;20064;-81
2022/05/23 17:13:15;;;;;;;10.90;3.50;;;;;;;20.91;57.32;98216.06;10437680;28;20128;-81
2022/05/23 17:18:17;;;;;;;10.25;3.35;;;;;;;20.53;58.34;98213.00;10433960;28;20714;-80
2022/05/23 17:23:19;;;;;;;7.72;3.00;;;;;;;20.38;59.48;98225.56;10434228;28;20225;-80
2022/05/23 17:28:24;;;;;;;9.20;3.25;;;;;;;20.20;60.31;98218.09;10435756;28;20139;-81
2022/05/23 17:33:26;;;;;;;9.68;3.55;;;;;;;20.06;60.71;98216.38;10435802;28;20076;-80
2022/05/23 17:38:28;;;;;;;7.25;3.80;;;;;;;19.87;61.42;98218.84;10439062;28;20133;-80
2022/05/23 17:43:30;;;;;;;9.38;3.78;;;;;;;19.78;61.59;98201.41;10435691;28;20190;-81
2022/05/23 17:48:34;;;;;;;8.15;3.10;;;;;;;19.88;62.61;98176.22;10432664;28;20052;-81
2022/05/23 17:53:38;;;;;;;8.85;3.65;;;;;;;20.21;62.39;98166.63;10435630;28;20087;-80
2022/05/23 17:58:41;;;;;;;8.13;3.40;;;;;;;20.65;62.19;98162.81;10434192;28;20041;-80
2022/05/23 18:03:43;;;;;;;10.40;3.35;;;;;;;20.88;61.27;98168.63;10429928;28;20060;-80
2022/05/23 18:08:50;;;;;;;8.18;3.22;;;;;;;20.90;60.89;98162.13;10435747;28;20094;-80
2022/05/23 18:19:25;;;;;;;8.15;2.90;;;;;;;20.98;60.06;98166.41;10433912;28;20057;-81
2022/05/23 18:24:28;;;;;;;6.35;2.80;;;;;;;20.94;60.03;98163.34;10430286;28;20168;-80
2022/05/23 18:29:34;;;;;;;8.82;2.75;;;;;;;20.82;59.80;98164.94;10431585;28;20089;-81
2022/05/23 18:34:38;;;;;;;6.45;2.65;;;;;;;20.56;60.06;98159.47;10431616;28;20853;-80
2022/05/23 18:39:41;;;;;;;8.48;2.58;;;;;;;20.18;60.24;98144.97;10412364;28;20057;-80
2022/05/23 18:44:44;;;;;;;6.22;2.50;;;;;;;20.04;61.02;98165.31;10430585;28;20106;-80
2022/05/23 18:49:55;;;;;;;7.65;2.70;;;;;;;19.91;61.04;98165.22;10433809;28;20049;-81
2022/05/23 18:54:58;;;;;;;5.38;2.45;;;;;;;19.85;60.80;98176.59;10428370;28;20056;-81
2022/05/23 19:00:08;;;;;;;5.15;2.22;;;;;;;19.71;61.27;98184.59;10432018;28;20476;-81
2022/05/23 19:05:12;;;;;;;6.68;2.50;;;;;;;19.56;61.64;98187.38;10435117;28;20142;-80
2022/05/23 19:10:19;;;;;;;5.82;2.33;;;;;;;19.40;61.77;98203.50;10434987;28;20083;-80
2022/05/23 19:15:22;;;;;;;6.60;2.55;;;;;;;19.41;61.44;98206.00;10432974;28;20041;-80
2022/05/23 19:20:25;;;;;;;5.45;2.55;;;;;;;19.36;61.75;98218.16;10428365;28;20501;-80
2022/05/23 19:25:28;;;;;;;5.35;2.35;;;;;;;19.35;61.74;98227.13;10435120;28;20064;-80
2022/05/23 19:30:30;;;;;;;5.45;2.38;;;;;;;19.32;61.51;98212.41;10431229;28;20550;-81
2022/05/23 19:35:32;;;;;;;5.05;2.20;;;;;;;19.38;61.68;98216.97;10434765;28;20089;-81
2022/05/23 19:40:35;;;;;;;5.28;2.15;;;;;;;19.40;62.02;98235.31;10424785;28;20061;-80
2022/05/23 19:45:38;;;;;;;4.53;2.30;;;;;;;19.33;61.69;98245.03;10431235;28;20084;-80
2022/05/23 19:50:41;;;;;;;5.28;2.20;;;;;;;19.33;61.64;98245.88;10425686;28;20057;-80
2022/05/23 19:55:44;;;;;;;4.10;2.20;;;;;;;19.22;62.09;98251.66;10426417;28;20378;-80
2022/05/23 20:00:49;;;;;;;5.60;2.33;;;;;;;19.19;62.23;98265.28;10426955;28;20134;-80
2022/05/23 20:11:11;;;;;;;;;;;;;;;18.72;63.04;98288.69;10426580;28;21498;-79
2022/05/23 20:16:13;;;;;;;6.57;2.60;;;;;;;18.93;61.50;98286.09;10421131;28;19971;-78
2022/05/23 20:21:15;;;;;;;5.47;2.03;;;;;;;18.97;61.29;98297.97;10431697;28;20138;-78
2022/05/23 20:26:19;;;;;;;6.20;1.90;;;;;;;18.95;61.17;98305.28;10425058;28;20119;-79
2022/05/23 20:31:21;;;;;;;6.35;2.00;;;;;;;18.97;60.90;98315.72;10433565;28;20106;-79
2022/05/23 20:36:24;;;;;;;4.22;1.92;;;;;;;18.94;60.75;98326.66;10433666;28;20052;-78
2022/05/23 20:41:26;;;;;;;4.10;2.00;;;;;;;18.91;60.84;98342.94;10435828;28;20068;-78
2022/05/23 20:46:33;;;;;;;4.65;2.08;;;;;;;18.91;60.81;98343.75;10435687;28;20152;-78
2022/05/23 20:51:36;;;;;;;3.58;1.80;;;;;;;18.89;60.74;98360.84;10437164;28;20556;-78
2022/05/23 20:56:37;;;;;;;7.10;2.20;;;;;;;18.87;60.38;98374.25;10435534;28;20049;-79
2022/05/23 21:01:58;;;;;;;4.65;2.20;;;;;;;18.65;59.48;98375.97;10435656;28;20398;-78
2022/05/23 21:07:02;;;;;;;5.50;2.60;;;;;;;18.59;58.85;98383.81;10434182;28;20476;-78
2022/05/23 21:12:04;;;;;;;5.70;2.60;;;;;;;18.52;58.78;98383.69;10434925;28;20049;-78
2022/05/23 21:17:12;;;;;;;6.35;2.70;;;;;;;18.47;57.76;98396.66;10434516;28;20052;-78
2022/05/23 21:22:21;;;;;;;7.70;3.60;;;;;;;18.35;57.71;98407.84;10434627;28;20056;-78
2022/05/23 21:27:23;;;;;;;4.50;3.35;;;;;;;18.20;57.96;98414.94;10435612;28;20052;-78
2022/05/23 21:32:25;;;;;;;5.53;3.50;;;;;;;18.08;57.85;98432.16;10436681;28;20494;-78
2022/05/23 21:37:27;;;;;;;4.10;2.97;;;;;;;18.09;58.18;98434.63;10435887;28;20107;-78
2022/05/23 21:47:49;;;;;;;4.07;3.10;;;;;;;18.02;57.97;98457.47;10434318;28;20048;-78
2022/05/23 21:52:51;;;;;;;6.25;3.05;;;;;;;17.95;57.99;98459.19;10426240;28;20080;-78
2022/05/23 21:57:52;;;;;;;6.40;3.08;;;;;;;17.99;57.44;98457.03;10430328;28;20136;-78
2022/05/23 22:02:54;;;;;;;4.28;3.00;;;;;;;17.92;57.22;98471.91;10431261;28;20055;-78
2022/05/23 22:07:56;;;;;;;5.68;3.30;;;;;;;17.84;57.06;98484.19;10432321;28;20056;-78
2022/05/23 22:12:57;;;;;;;5.95;3.63;;;;;;;17.67;57.43;98490.53;10432182;28;20089;-78
2022/05/23 22:17:59;;;;;;;4.95;3.58;;;;;;;17.69;57.50;98493.84;10430493;28;20553;-79
2022/05/23 22:23:01;;;;;;;4.70;3.20;;;;;;;17.89;57.26;98511.97;10430603;28;20084;-78
2022/05/23 22:28:03;;;;;;;4.93;3.10;;;;;;;17.92;57.83;98516.88;10431895;28;21089;-79
2022/05/23 22:33:05;;;;;;;5.28;3.22;;;;;;;17.92;57.29;98527.47;10430278;28;20053;-78
2022/05/23 22:38:07;;;;;;;5.88;2.97;;;;;;;17.65;57.24;98536.66;10431735;28;20049;-79
2022/05/23 22:43:09;;;;;;;5.22;2.90;;;;;;;17.66;56.83;98539.16;10430214;28;20106;-79
2022/05/23 22:48:11;;;;;;;3.90;2.90;;;;;;;17.63;57.05;98547.41;10429763;28;20633;-78
2022/05/23 22:53:13;;;;;;;7.50;3.28;;;;;;;17.73;56.81;98561.25;10427900;28;20118;-78
2022/05/23 22:58:16;;;;;;;5.00;3.85;;;;;;;17.61;57.12;98561.78;10426747;28;20080;-79
2022/05/23 23:08:38;;;;;;;6.72;2.65;;;;;;;17.72;57.11;98564.91;10426344;28;20486;-78
2022/05/23 23:13:40;;;;;;;7.00;3.25;;;;;;;17.62;56.64;98574.03;10426844;28;20114;-79
2022/05/23 23:18:42;;;;;;;4.22;3.08;;;;;;;17.49;56.92;98578.97;10425994;28;20114;-79
2022/05/23 23:23:44;;;;;;;4.57;3.17;;;;;;;17.27;57.18;98580.47;10425068;28;20146;-78
2022/05/23 23:28:46;;;;;;;6.47;3.25;;;;;;;17.23;57.48;98579.16;10423117;28;20138;-79
2022/05/23 23:39:08;;;;;;;6.25;3.38;;;;;;;16.94;57.10;98606.06;10423708;28;20469;-79
2022/05/23 23:44:09;;;;;;;4.10;2.72;;;;;;;16.98;56.88;98598.63;10421858;28;20061;-79
2022/05/23 23:49:11;;;;;;;3.78;2.42;;;;;;;16.85;56.54;98600.94;10428473;28;20499;-79
2022/05/23 23:54:13;;;;;;;5.82;2.33;;;;;;;16.82;56.31;98609.19;10426366;28;20057;-79
2022/05/23 23:59:14;;;;;;;4.65;2.53;;;;;;;16.62;56.58;98608.66;10427241;28;20494;-78
